YEO weather

RNAS Yeovilton
Yeovil, England, United Kingdom

Public forecast

Using degrees Celsius for public forecast. Weather courtesy of forecast.io.

METAR (pilot weather report)

Retrieved 2019/04/23 16:50 UTC (55 minutes ago):

EGDY 231650Z 26004KT CAVOK 19/12 Q0994 BLU NOSIG

TAF (pilot weather forecast)

Forecast is more than 12 hours old.

Retrieved 2019/03/15 09:03 UTC (1 month ago):

TAF TAF EGDY 151458Z 1509/1521 CNL